Time;durP1;ratioP1;P1;durP2;ratioP2;P2;SDS_P1;SDS_P2;PMS_P1;PMS_P2;Temp;Humidity;BMP_temperature;BMP_pressure;BME280_temperature;BME280_humidity;BME280_pressure;Samples;Min_cycle;Max_cycle;Signal;HPM_P1;HPM_P2
2022/02/11 00:07:08;;;;;;;444.67;173.67;;;;;;;3.80;100.00;99101.16;5018107;28;20331;-58
2022/02/11 00:09:34;;;;;;;448.30;177.50;;;;;;;3.81;100.00;99095.28;5019483;28;20268;-57
2022/02/11 00:12:00;;;;;;;447.50;173.33;;;;;;;3.75;100.00;99092.63;5015040;28;20358;-56
2022/02/11 00:14:28;;;;;;;447.87;172.90;;;;;;;3.61;100.00;99078.06;5014042;28;20276;-56
2022/02/11 00:16:53;;;;;;;447.07;170.87;;;;;;;3.63;100.00;99086.56;5016284;28;20092;-57
2022/02/11 00:19:19;;;;;;;447.53;171.17;;;;;;;3.54;100.00;99090.63;5020646;28;20296;-56
2022/02/11 00:21:45;;;;;;;455.13;186.43;;;;;;;3.48;100.00;99093.91;5015779;28;20033;-58
2022/02/11 00:24:10;;;;;;;453.37;175.80;;;;;;;3.48;100.00;99090.53;4999680;28;20033;-57
2022/02/11 00:26:38;;;;;;;451.77;172.40;;;;;;;3.40;100.00;99084.44;5018249;28;20050;-55
2022/02/11 00:32:01;;;;;;;448.13;163.00;;;;;;;3.38;100.00;99087.00;5015103;28;20259;-58
2022/02/11 00:34:37;;;;;;;449.37;167.00;;;;;;;3.26;100.00;99080.84;5014290;28;20291;-58
2022/02/11 01:04:01;;;;;;;448.10;156.83;;;;;;;3.17;100.00;99081.56;5014844;28;20731;-56
2022/02/11 01:06:28;;;;;;;443.20;153.97;;;;;;;3.21;100.00;99071.50;5018567;28;20356;-58
2022/02/11 01:08:54;;;;;;;448.33;157.83;;;;;;;3.07;100.00;99079.66;5015496;28;20338;-58
2022/02/11 01:12:06;;;;;;;447.77;158.67;;;;;;;2.94;100.00;99075.22;5012087;28;20287;-57
2022/02/11 01:14:06;;;;;;;447.13;156.73;;;;;;;2.82;100.00;99085.97;5007981;28;20277;-57
2022/02/11 01:16:41;;;;;;;447.20;155.00;;;;;;;2.78;100.00;99075.75;5018434;28;20334;-57
2022/02/11 01:19:21;;;;;;;441.00;153.50;;;;;;;2.67;100.00;99073.03;5010809;28;20284;-57
2022/02/11 01:22:13;;;;;;;437.73;148.30;;;;;;;2.58;100.00;99063.59;5005859;28;20068;-57
2022/02/11 01:38:05;;;;;;;427.57;137.30;;;;;;;2.61;100.00;99050.13;4981102;28;20046;-57
2022/02/11 01:50:57;;;;;;;442.07;147.47;;;;;;;2.70;100.00;99023.31;4983408;28;20117;-58
2022/02/11 01:56:21;;;;;;;442.27;147.47;;;;;;;2.74;100.00;99024.22;4982562;28;20270;-57
2022/02/11 02:25:59;;;;;;;459.80;152.83;;;;;;;2.17;100.00;99023.94;4988401;28;20270;-57
2022/02/11 02:57:43;;;;;;;443.00;138.07;;;;;;;1.70;100.00;99027.97;5035653;28;20258;-58
2022/02/11 03:49:28;;;;;;;434.60;129.90;;;;;;;0.72;100.00;99019.72;4975873;28;20317;-56
2022/02/11 04:56:59;;;;;;;437.57;135.67;;;;;;;2.07;100.00;98994.25;5032672;28;20255;-55
2022/02/11 04:59:40;;;;;;;440.40;134.37;;;;;;;2.12;100.00;98995.19;5019364;28;20291;-54
2022/02/11 05:02:06;;;;;;;438.73;135.90;;;;;;;2.15;100.00;98991.06;5035056;28;20447;-55
2022/02/11 05:04:34;;;;;;;435.63;132.60;;;;;;;2.19;100.00;98979.31;5031698;28;20333;-55
2022/02/11 05:07:03;;;;;;;437.27;136.77;;;;;;;2.15;100.00;98972.50;5031483;28;20265;-58
2022/02/11 05:09:29;;;;;;;443.20;138.27;;;;;;;2.26;100.00;98984.50;5034440;28;20299;-56
2022/02/11 05:11:55;;;;;;;445.40;149.83;;;;;;;2.34;100.00;98976.22;5037282;28;20350;-54
2022/02/11 05:14:20;;;;;;;440.60;141.33;;;;;;;2.38;100.00;98988.94;5033608;28;20266;-55
2022/02/11 05:16:46;;;;;;;441.23;141.13;;;;;;;2.44;100.00;98991.59;5031356;28;20106;-58
2022/02/11 05:19:11;;;;;;;438.57;142.53;;;;;;;2.61;100.00;99004.56;5034927;28;20031;-58
2022/02/11 05:21:36;;;;;;;444.83;146.37;;;;;;;2.65;100.00;99004.66;5035529;28;20033;-59
2022/02/11 05:24:02;;;;;;;443.23;144.33;;;;;;;2.66;100.00;99001.31;5031896;28;20030;-59
2022/02/11 05:26:29;;;;;;;447.53;147.93;;;;;;;2.66;100.00;98981.06;5031784;28;20906;-57
2022/02/11 05:28:55;;;;;;;443.47;146.90;;;;;;;2.66;100.00;98981.06;5035906;28;20091;-59
2022/02/11 05:31:20;;;;;;;443.53;148.30;;;;;;;2.69;100.00;98975.19;5035301;28;20264;-58
2022/02/11 05:33:47;;;;;;;441.30;145.67;;;;;;;2.65;100.00;98969.22;5030151;28;20267;-59
2022/02/11 05:36:14;;;;;;;445.97;150.67;;;;;;;2.71;100.00;98969.34;5032602;28;20472;-58
2022/02/11 05:38:40;;;;;;;447.73;152.83;;;;;;;2.70;100.00;98961.72;5033623;28;20272;-59
2022/02/11 05:41:05;;;;;;;444.53;151.63;;;;;;;2.76;100.00;98967.72;5035694;28;20314;-56
2022/02/11 05:43:30;;;;;;;450.00;159.97;;;;;;;2.84;100.00;98970.41;5029892;28;20034;-57
2022/02/11 05:45:56;;;;;;;444.47;151.53;;;;;;;3.08;100.00;98986.00;5034655;28;20123;-58
2022/02/11 05:48:21;;;;;;;447.90;157.20;;;;;;;3.12;100.00;98969.16;5040891;28;20109;-59
2022/02/11 05:50:46;;;;;;;448.07;161.10;;;;;;;3.17;100.00;98976.00;5034174;28;20781;-59
2022/02/11 05:53:12;;;;;;;446.77;162.00;;;;;;;3.27;100.00;98978.69;5030498;28;20041;-58
2022/02/11 05:55:37;;;;;;;451.70;160.60;;;;;;;3.37;100.00;98971.25;5030847;28;20473;-59
2022/02/11 05:58:03;;;;;;;443.17;151.83;;;;;;;3.32;100.00;98970.31;5031118;28;20033;-59
2022/02/11 06:00:29;;;;;;;453.60;171.70;;;;;;;3.22;100.00;98963.44;5035113;28;20160;-59
2022/02/11 06:02:54;;;;;;;448.77;158.40;;;;;;;3.17;100.00;98944.75;5031495;28;20490;-58
2022/02/11 06:05:19;;;;;;;448.20;163.27;;;;;;;3.12;100.00;98946.38;5033372;28;20479;-59
2022/02/11 06:07:45;;;;;;;447.93;161.33;;;;;;;3.07;100.00;98945.44;5033477;28;20119;-56
2022/02/11 06:10:11;;;;;;;450.80;168.37;;;;;;;3.04;100.00;98955.53;5032146;28;20468;-58
2022/02/11 06:12:36;;;;;;;447.07;164.93;;;;;;;3.01;100.00;98958.84;5034392;28;20029;-58
2022/02/11 06:15:02;;;;;;;453.50;165.00;;;;;;;3.00;100.00;98958.84;5032420;28;20364;-58
2022/02/11 06:17:27;;;;;;;452.13;169.40;;;;;;;3.04;100.00;98950.47;5035691;28;20040;-59
2022/02/11 06:19:57;;;;;;;447.83;160.87;;;;;;;3.06;100.00;98952.19;5030159;28;20468;-58
2022/02/11 06:22:22;;;;;;;451.23;165.60;;;;;;;3.07;100.00;98961.50;5029898;28;20431;-58
2022/02/11 06:24:48;;;;;;;449.73;167.23;;;;;;;3.13;100.00;98953.16;5034541;28;20279;-56
2022/02/11 06:27:15;;;;;;;449.10;164.07;;;;;;;3.17;100.00;98955.75;5035626;28;20039;-58
2022/02/11 06:29:40;;;;;;;448.33;163.17;;;;;;;3.29;100.00;98960.16;5033837;28;20047;-56
2022/02/11 06:32:06;;;;;;;447.83;163.57;;;;;;;3.44;100.00;98973.03;5014921;28;21046;-59
2022/02/11 06:34:32;;;;;;;446.67;162.57;;;;;;;3.52;100.00;98973.16;5034230;28;20076;-59
2022/02/11 06:36:57;;;;;;;453.63;165.83;;;;;;;3.58;100.00;98973.22;5037366;28;20033;-58
2022/02/11 06:39:24;;;;;;;450.47;166.87;;;;;;;3.65;100.00;98969.94;5034286;28;20114;-57
2022/02/11 06:41:53;;;;;;;448.13;164.33;;;;;;;3.74;100.00;98976.81;5030878;28;20099;-58
2022/02/11 06:44:18;;;;;;;449.80;167.40;;;;;;;3.88;100.00;98967.72;5033529;28;20264;-60
2022/02/11 06:46:44;;;;;;;457.03;188.87;;;;;;;3.96;100.00;98967.00;5040498;28;20349;-60
2022/02/11 06:49:09;;;;;;;449.47;171.83;;;;;;;4.10;100.00;98979.84;5034951;28;20065;-60
2022/02/11 06:51:35;;;;;;;450.33;169.40;;;;;;;4.38;100.00;98981.00;5035121;28;20068;-60
2022/02/11 06:54:00;;;;;;;451.50;175.63;;;;;;;4.53;100.00;98974.44;5037768;28;20029;-60
2022/02/11 06:56:26;;;;;;;452.97;176.93;;;;;;;4.60;100.00;98978.72;5037834;28;20738;-60
2022/02/11 06:58:53;;;;;;;452.20;174.60;;;;;;;4.76;100.00;98989.03;5033811;28;20529;-60
2022/02/11 07:01:19;;;;;;;451.47;172.80;;;;;;;4.99;100.00;98995.19;5037869;28;20037;-60
2022/02/11 07:03:45;;;;;;;454.67;177.27;;;;;;;5.12;100.00;98991.91;5041691;28;20611;-58
2022/02/11 07:06:11;;;;;;;454.10;179.10;;;;;;;5.11;100.00;98985.13;5038484;28;20256;-60
2022/02/11 07:08:36;;;;;;;459.70;191.23;;;;;;;5.31;100.00;98981.03;5034881;28;20443;-59
2022/02/11 07:11:02;;;;;;;459.47;189.83;;;;;;;5.38;100.00;98987.88;5036498;28;20048;-60
2022/02/11 07:13:28;;;;;;;462.10;196.07;;;;;;;5.44;100.00;98982.84;5038799;28;20041;-59
2022/02/11 07:15:53;;;;;;;455.73;188.03;;;;;;;5.58;100.00;98989.69;5036120;28;20039;-61
2022/02/11 07:18:18;;;;;;;460.10;197.87;;;;;;;5.63;100.00;98998.22;5034909;28;20033;-60
2022/02/11 07:20:44;;;;;;;465.20;200.47;;;;;;;5.64;100.00;98999.94;5033910;28;20064;-60
2022/02/11 07:23:10;;;;;;;467.13;204.00;;;;;;;5.74;100.00;98996.59;5038261;28;20029;-60
2022/02/11 07:25:36;;;;;;;467.03;209.30;;;;;;;5.72;100.00;99003.38;5036519;28;20169;-59
2022/02/11 07:28:02;;;;;;;463.20;207.90;;;;;;;5.76;100.00;99000.84;5033242;28;20261;-60
2022/02/11 07:30:28;;;;;;;466.40;208.13;;;;;;;5.70;100.00;99005.88;5035196;28;20031;-59
2022/02/11 07:32:53;;;;;;;464.93;213.50;;;;;;;5.65;100.00;99010.09;5036280;28;20060;-60
2022/02/11 07:35:21;;;;;;;464.10;215.57;;;;;;;5.72;100.00;99013.53;5033855;28;20096;-62
2022/02/11 07:37:47;;;;;;;469.53;221.20;;;;;;;5.72;100.00;99021.19;5032681;28;20410;-59
2022/02/11 07:40:15;;;;;;;469.50;218.83;;;;;;;5.80;100.00;99038.19;5035690;28;20060;-59
2022/02/11 07:42:46;;;;;;;463.87;215.47;;;;;;;5.77;100.00;99034.78;5035314;28;20608;-61
2022/02/11 07:45:13;;;;;;;466.63;219.53;;;;;;;5.72;100.00;99024.56;5032340;28;20017;-59
2022/02/11 07:47:38;;;;;;;467.47;216.23;;;;;;;5.70;100.00;99005.88;5035216;28;20036;-61
2022/02/11 07:50:05;;;;;;;466.53;219.60;;;;;;;5.68;100.00;99017.75;5028156;28;20055;-58
2022/02/11 07:52:31;;;;;;;469.60;222.40;;;;;;;5.71;100.00;99020.31;5042034;28;20506;-59
2022/02/11 07:54:56;;;;;;;470.97;226.07;;;;;;;5.75;100.00;99023.72;5030780;28;20034;-58
2022/02/11 07:57:23;;;;;;;466.97;223.47;;;;;;;5.86;100.00;99022.97;5032604;28;20026;-59
2022/02/11 07:59:49;;;;;;;468.03;224.53;;;;;;;5.90;100.00;99016.22;5023314;28;20036;-58
2022/02/11 08:02:14;;;;;;;474.37;232.83;;;;;;;5.90;100.00;99011.97;5036811;28;20021;-58
2022/02/11 08:04:40;;;;;;;464.23;221.97;;;;;;;5.92;100.00;99022.16;5033521;28;20384;-60
2022/02/11 08:07:05;;;;;;;467.10;224.33;;;;;;;5.91;100.00;99021.31;5037206;28;20083;-58
2022/02/11 08:09:30;;;;;;;465.47;225.03;;;;;;;5.92;100.00;99029.81;5039041;28;20059;-60
2022/02/11 08:11:57;;;;;;;467.50;225.27;;;;;;;6.01;100.00;99029.00;5035469;28;20041;-60
2022/02/11 08:14:26;;;;;;;465.70;222.53;;;;;;;6.05;100.00;99029.03;5032302;28;20039;-60
2022/02/11 08:16:51;;;;;;;471.97;233.83;;;;;;;6.16;100.00;99031.63;5032184;28;20476;-60
2022/02/11 08:19:19;;;;;;;468.53;225.60;;;;;;;6.18;100.00;99033.34;5036364;28;20022;-58
2022/02/11 08:21:49;;;;;;;472.70;239.10;;;;;;;6.22;100.00;99032.50;5037502;28;20029;-59
2022/02/11 08:24:15;;;;;;;466.67;230.13;;;;;;;6.25;100.00;99029.97;5037243;28;20060;-62
2022/02/11 08:26:41;;;;;;;466.83;229.30;;;;;;;6.30;100.00;99025.75;5034284;28;20045;-60
2022/02/11 08:29:08;;;;;;;471.87;238.00;;;;;;;6.35;100.00;99029.19;5035986;28;20042;-58
2022/02/11 08:31:34;;;;;;;469.87;239.87;;;;;;;6.38;100.00;99038.53;5033577;28;20041;-59
2022/02/11 08:34:00;;;;;;;474.30;244.13;;;;;;;6.38;100.00;99029.19;5033347;28;20029;-57
2022/02/11 08:36:25;;;;;;;471.00;240.73;;;;;;;6.46;100.00;99028.34;5036649;28;20033;-58
2022/02/11 08:38:51;;;;;;;473.63;242.70;;;;;;;6.55;100.00;99033.50;5033647;28;20033;-58
2022/02/11 08:41:16;;;;;;;471.43;244.37;;;;;;;6.62;100.00;99032.69;5033929;28;20045;-58
2022/02/11 08:43:42;;;;;;;478.40;252.13;;;;;;;6.69;100.00;99036.94;5031408;28;20637;-59
2022/02/11 08:46:08;;;;;;;471.87;245.07;;;;;;;6.78;100.00;99034.41;5036468;28;20055;-60
2022/02/11 08:48:33;;;;;;;471.43;243.13;;;;;;;6.85;100.00;99020.84;5035505;28;20506;-60
2022/02/11 08:50:59;;;;;;;472.17;244.27;;;;;;;7.01;100.00;99040.41;5034041;28;20041;-58
2022/02/11 08:53:24;;;;;;;474.80;254.10;;;;;;;6.92;100.00;99032.72;5033793;28;20034;-57
2022/02/11 08:55:51;;;;;;;473.97;246.20;;;;;;;7.02;100.00;99043.81;5035904;28;20033;-59
2022/02/11 08:58:20;;;;;;;480.00;256.10;;;;;;;7.13;100.00;99055.72;5035548;28;20447;-60
2022/02/11 09:00:49;;;;;;;472.60;250.40;;;;;;;7.30;100.00;99056.59;5034187;28;20033;-58
2022/02/11 09:03:15;;;;;;;482.97;266.33;;;;;;;7.27;100.00;99056.59;5037199;28;20225;-55
2022/02/11 09:05:41;;;;;;;472.20;250.83;;;;;;;7.35;100.00;99062.53;5039722;28;20187;-59
2022/02/11 09:08:07;;;;;;;480.60;255.00;;;;;;;7.37;100.00;99051.50;5028310;28;20095;-58
2022/02/11 09:10:32;;;;;;;493.30;269.70;;;;;;;7.37;100.00;99056.59;5034451;28;20179;-58
2022/02/11 09:12:59;;;;;;;479.67;260.90;;;;;;;7.38;100.00;99060.88;5032110;28;20037;-60
2022/02/11 09:15:26;;;;;;;476.93;259.13;;;;;;;7.49;100.00;99057.47;5034965;28;20464;-61
2022/02/11 09:17:52;;;;;;;475.90;258.50;;;;;;;7.60;100.00;99060.84;5037165;28;20123;-60
2022/02/11 09:20:18;;;;;;;475.77;263.40;;;;;;;7.62;100.00;99046.41;5031378;28;20052;-58
2022/02/11 09:22:44;;;;;;;487.13;283.80;;;;;;;7.77;100.00;99053.16;5034041;28;20037;-61
2022/02/11 09:25:10;;;;;;;484.07;271.73;;;;;;;7.80;100.00;99066.81;5036970;28;20116;-59
2022/02/11 09:27:43;;;;;;;481.60;277.40;;;;;;;7.97;100.00;99065.94;5036205;28;20488;-59
2022/02/11 09:30:20;;;;;;;488.23;280.67;;;;;;;8.08;100.00;99082.91;5030950;28;20037;-59
2022/02/11 09:32:48;;;;;;;490.90;296.97;;;;;;;8.32;100.00;99082.03;5033704;28;20029;-58
2022/02/11 09:35:15;;;;;;;486.23;289.60;;;;;;;8.47;100.00;99078.59;5034995;28;20094;-59
2022/02/11 09:37:41;;;;;;;483.90;292.87;;;;;;;8.52;100.00;99084.53;5034257;28;20120;-60
2022/02/11 09:40:11;;;;;;;487.10;297.77;;;;;;;8.58;100.00;99084.50;5032350;28;20049;-58
2022/02/11 09:42:38;;;;;;;483.53;296.97;;;;;;;8.63;100.00;99086.19;5036609;28;20032;-58
2022/02/11 09:45:06;;;;;;;481.90;298.10;;;;;;;8.85;100.00;99083.53;5035326;28;20117;-56
2022/02/11 09:47:33;;;;;;;493.03;323.57;;;;;;;8.89;100.00;99082.66;5033193;28;20064;-58
2022/02/11 09:49:58;;;;;;;483.80;304.87;;;;;;;8.80;100.00;99096.34;5033182;28;20061;-58
2022/02/11 09:52:24;;;;;;;482.60;301.17;;;;;;;8.78;100.00;99098.09;5035179;28;20368;-59
2022/02/11 09:55:31;;;;;;;483.27;299.97;;;;;;;8.77;100.00;99093.81;5034918;28;20029;-57
2022/02/11 09:57:34;;;;;;;482.55;297.58;;;;;;;8.67;100.00;99094.69;5031797;28;20392;-57
2022/02/11 10:00:00;;;;;;;482.80;300.80;;;;;;;8.85;100.00;99102.28;5031537;28;20075;-57
2022/02/11 10:02:25;;;;;;;485.63;303.07;;;;;;;8.89;100.00;99098.88;5016885;28;20119;-56
2022/02/11 10:04:56;;;;;;;486.17;309.23;;;;;;;8.97;100.00;99093.72;5038447;28;20044;-57
2022/02/11 10:07:22;;;;;;;489.77;322.90;;;;;;;8.96;100.00;99097.97;5032228;28;20034;-57
2022/02/11 10:09:48;;;;;;;488.77;319.40;;;;;;;9.03;100.00;99102.22;5029012;28;20044;-55
2022/02/11 10:12:14;;;;;;;487.07;322.60;;;;;;;9.10;100.00;99093.66;5034316;28;20053;-59
2022/02/11 10:14:41;;;;;;;498.77;346.57;;;;;;;9.05;100.00;99104.75;5034844;28;20491;-61
2022/02/11 10:17:16;;;;;;;489.30;334.90;;;;;;;9.14;100.00;99103.00;5032167;28;20498;-59
2022/02/11 10:19:47;;;;;;;488.77;330.33;;;;;;;9.22;100.00;99108.06;5031103;28;20025;-57
2022/02/11 10:22:25;;;;;;;490.87;335.70;;;;;;;9.21;100.00;99100.41;5037869;28;20033;-58
2022/02/11 10:24:51;;;;;;;490.50;342.27;;;;;;;9.22;100.00;99105.50;5034474;28;20361;-59
2022/02/11 10:27:24;;;;;;;493.60;350.63;;;;;;;9.15;100.00;99104.69;5032798;28;20113;-58
2022/02/11 10:29:53;;;;;;;487.00;331.33;;;;;;;9.09;100.00;99097.06;5032665;28;20035;-56
2022/02/11 10:32:38;;;;;;;486.03;320.00;;;;;;;8.78;100.00;99097.22;5034588;28;20029;-59
2022/02/11 10:35:06;;;;;;;489.88;323.35;;;;;;;8.60;100.00;99110.91;5030371;28;20033;-58
2022/02/11 10:37:31;;;;;;;482.90;299.13;;;;;;;8.52;100.00;99099.88;5029605;28;20037;-59
2022/02/11 10:39:58;;;;;;;480.43;292.97;;;;;;;8.53;100.00;99104.97;5033779;28;20502;-58
2022/02/11 10:42:44;;;;;;;479.03;290.60;;;;;;;8.40;100.00;99118.63;5033478;28;20048;-57
2022/02/11 10:45:37;;;;;;;488.67;304.03;;;;;;;8.37;100.00;99110.97;5029622;28;20858;-57
2022/02/11 10:48:21;;;;;;;475.33;272.23;;;;;;;8.20;100.00;99110.13;5032340;28;20072;-59
2022/02/11 10:50:58;;;;;;;472.50;262.05;;;;;;;8.13;100.00;99119.53;5034102;28;20060;-58
2022/02/11 10:53:28;;;;;;;470.80;260.23;;;;;;;8.09;100.00;99122.94;5022109;28;20382;-58
2022/02/11 10:55:54;;;;;;;470.47;258.87;;;;;;;8.18;100.00;99119.50;5033511;28;20377;-59
2022/02/11 10:58:22;;;;;;;480.70;275.63;;;;;;;8.18;100.00;99129.72;5035753;28;20033;-58
2022/02/11 11:00:48;;;;;;;468.87;255.77;;;;;;;8.23;100.00;99131.41;5015988;28;20349;-59
2022/02/11 11:03:13;;;;;;;470.13;260.50;;;;;;;8.32;100.00;99132.31;5023344;28;20454;-59
2022/02/11 11:05:44;;;;;;;471.07;257.30;;;;;;;8.28;100.00;99139.91;5034191;28;20100;-60
2022/02/11 11:08:14;;;;;;;475.10;270.53;;;;;;;8.40;100.00;99130.56;5037135;28;20112;-59
2022/02/11 11:10:45;;;;;;;470.07;262.33;;;;;;;8.49;100.00;99135.63;5032992;28;20060;-59
2022/02/11 11:13:14;;;;;;;472.10;267.13;;;;;;;8.52;100.00;99133.09;5030210;28;20116;-58
2022/02/11 11:15:41;;;;;;;473.10;269.43;;;;;;;8.58;100.00;99138.16;5032469;28;20092;-57
2022/02/11 11:18:10;;;;;;;474.57;280.23;;;;;;;8.69;100.00;99146.69;5035241;28;20083;-58
2022/02/11 11:20:36;;;;;;;487.40;303.03;;;;;;;8.77;100.00;99146.66;5032769;28;20047;-58
2022/02/11 11:23:17;;;;;;;486.07;303.97;;;;;;;8.76;100.00;99130.44;5028429;28;20028;-59
2022/02/11 11:26:02;;;;;;;479.17;285.27;;;;;;;8.84;100.00;99138.94;5034590;28;20179;-59
2022/02/11 11:28:49;;;;;;;473.17;273.13;;;;;;;8.75;100.00;99146.63;5037212;28;20121;-56
2022/02/11 11:31:27;;;;;;;472.73;268.53;;;;;;;8.50;100.00;99142.47;5031626;28;20175;-58
2022/02/11 11:34:15;;;;;;;473.03;272.57;;;;;;;8.45;100.00;99146.72;5032300;28;20055;-57
2022/02/11 11:36:42;;;;;;;471.57;265.37;;;;;;;8.35;100.00;99168.06;5040212;28;20029;-58
2022/02/11 11:39:07;;;;;;;473.80;264.80;;;;;;;8.23;100.00;99171.44;5037735;28;20527;-58
2022/02/11 11:41:35;;;;;;;470.80;260.67;;;;;;;8.25;100.00;99187.59;5035210;28;20547;-58
2022/02/11 11:44:20;;;;;;;468.60;259.37;;;;;;;8.37;100.00;99179.09;5032967;28;20038;-57
2022/02/11 11:46:50;;;;;;;469.30;258.60;;;;;;;8.36;100.00;99203.78;5037345;28;20392;-59
2022/02/11 11:49:17;;;;;;;470.27;258.40;;;;;;;8.26;98.19;99181.66;5033201;28;20054;-59
2022/02/11 11:51:45;;;;;;;471.13;250.23;;;;;;;8.35;96.87;99191.03;5032287;28;20029;-58
2022/02/11 11:54:22;;;;;;;469.43;252.80;;;;;;;8.30;95.50;99229.38;5035773;28;20604;-58
2022/02/11 11:57:12;;;;;;;468.03;247.93;;;;;;;8.16;93.64;99201.22;5037128;28;20050;-57
2022/02/11 11:59:47;;;;;;;467.50;249.30;;;;;;;8.24;91.45;99203.78;5034561;28;20068;-58
2022/02/11 12:02:19;;;;;;;466.42;247.18;;;;;;;8.08;90.36;99217.41;5033754;28;20262;-58
2022/02/11 12:04:50;;;;;;;466.77;245.70;;;;;;;7.98;90.77;99200.38;5019916;28;20025;-59
2022/02/11 12:07:21;;;;;;;466.90;242.37;;;;;;;7.95;88.50;99196.13;5038900;28;20021;-59
2022/02/11 12:09:49;;;;;;;467.40;246.87;;;;;;;7.84;90.16;99191.88;5033659;28;20052;-58
2022/02/11 12:12:20;;;;;;;466.67;244.93;;;;;;;7.82;91.99;99202.06;5033436;28;20155;-59
2022/02/11 12:14:47;;;;;;;465.07;238.53;;;;;;;7.72;90.67;99203.75;5036204;28;20110;-56
2022/02/11 12:17:14;;;;;;;463.73;235.43;;;;;;;7.78;89.15;99187.59;5038936;28;20022;-59
2022/02/11 12:19:41;;;;;;;477.43;260.13;;;;;;;7.85;89.21;99208.91;5032664;28;20030;-58
2022/02/11 12:22:08;;;;;;;465.17;234.43;;;;;;;7.65;87.29;99170.56;5034711;28;20116;-58
2022/02/11 12:27:30;;;;;;;462.23;231.32;;;;;;;7.60;89.83;99208.81;5039453;28;20523;-57
2022/02/11 12:30:11;;;;;;;475.00;250.77;;;;;;;7.58;87.78;99230.97;5035372;28;20759;-58
2022/02/11 12:32:40;;;;;;;461.90;226.30;;;;;;;7.47;90.75;99203.72;5035894;28;20064;-58
2022/02/11 12:35:08;;;;;;;463.90;229.93;;;;;;;7.51;89.46;99205.44;5035146;28;20029;-59
2022/02/11 12:37:34;;;;;;;461.07;224.90;;;;;;;7.34;88.19;99178.16;5033508;28;20036;-59
2022/02/11 12:40:06;;;;;;;464.43;230.37;;;;;;;7.32;87.62;99186.66;5034736;28;20368;-59
2022/02/11 12:42:34;;;;;;;461.10;229.67;;;;;;;7.34;84.20;99190.91;5037788;28;20039;-57
2022/02/11 12:45:00;;;;;;;462.50;224.57;;;;;;;7.37;83.79;99186.69;5039036;28;20028;-58
2022/02/11 12:47:26;;;;;;;467.30;232.77;;;;;;;7.30;84.27;99191.75;5024294;28;20037;-59
2022/02/11 12:49:53;;;;;;;460.03;218.87;;;;;;;7.03;84.18;99203.56;5030555;28;20548;-60
2022/02/11 12:52:21;;;;;;;460.13;219.20;;;;;;;7.05;82.91;99257.94;5035340;28;20042;-59
2022/02/11 12:55:20;;;;;;;470.10;230.87;;;;;;;6.97;83.28;99223.91;5037447;28;20092;-61
2022/02/11 12:57:51;;;;;;;457.40;204.30;;;;;;;6.89;85.66;99217.09;5002241;28;20183;-61
2022/02/11 13:00:22;;;;;;;457.67;205.83;;;;;;;7.03;84.65;99178.06;5033170;28;20044;-61
2022/02/11 13:02:50;;;;;;;459.33;206.23;;;;;;;7.07;82.33;99197.63;5035724;28;20067;-60
2022/02/11 13:05:21;;;;;;;457.50;208.60;;;;;;;7.14;75.73;99209.53;5036215;28;20028;-58
2022/02/11 13:07:51;;;;;;;470.37;235.03;;;;;;;7.06;73.53;99201.88;5034301;28;20081;-60
2022/02/11 13:10:22;;;;;;;469.57;227.13;;;;;;;7.03;72.61;99198.47;5034101;28;20044;-60
2022/02/11 13:12:50;;;;;;;457.20;209.40;;;;;;;6.92;75.26;99225.59;5039046;28;20480;-59
2022/02/11 13:15:17;;;;;;;456.23;206.30;;;;;;;6.84;76.28;99228.09;5035155;28;20040;-59
2022/02/11 13:17:45;;;;;;;456.27;207.97;;;;;;;6.74;77.36;99219.56;5033563;28;20080;-60
2022/02/11 13:20:16;;;;;;;456.63;207.53;;;;;;;6.71;75.66;99236.50;5034170;28;20035;-60
2022/02/11 13:22:43;;;;;;;454.93;200.57;;;;;;;6.61;77.89;99244.97;5037331;28;20041;-60
2022/02/11 13:25:11;;;;;;;466.53;215.57;;;;;;;6.45;80.64;99230.41;5031795;28;20040;-59
2022/02/11 13:27:41;;;;;;;468.13;215.77;;;;;;;6.40;79.62;99223.59;5030933;28;20459;-57
2022/02/11 13:30:07;;;;;;;459.27;203.57;;;;;;;6.36;75.78;99264.31;5034044;28;20033;-59
2022/02/11 13:32:33;;;;;;;453.43;195.17;;;;;;;6.32;77.52;99282.94;5037820;28;20087;-58
2022/02/11 13:35:04;;;;;;;453.50;194.30;;;;;;;6.29;75.68;99249.78;5032482;28;20036;-59
2022/02/11 13:37:59;;;;;;;450.87;188.03;;;;;;;6.31;71.65;99282.09;5035756;28;20060;-59
2022/02/11 13:40:27;;;;;;;452.20;187.65;;;;;;;6.19;71.57;99269.25;5032876;28;20503;-59
2022/02/11 13:42:55;;;;;;;467.80;210.30;;;;;;;6.14;68.94;99300.59;5033575;28;20052;-59
2022/02/11 13:45:20;;;;;;;460.87;200.73;;;;;;;6.05;69.27;99292.88;5034358;28;20052;-58
2022/02/11 13:48:09;;;;;;;456.57;192.70;;;;;;;6.05;67.48;99321.72;5037106;28;20037;-57
2022/02/11 13:51:01;;;;;;;455.07;190.63;;;;;;;6.12;67.45;99323.47;5033820;28;20052;-60
2022/02/11 13:53:37;;;;;;;457.53;196.37;;;;;;;6.15;66.69;99336.25;5033153;28;20478;-58
2022/02/11 13:56:05;;;;;;;454.33;202.97;;;;;;;6.01;66.92;99342.03;5035876;28;20267;-59
2022/02/11 13:58:33;;;;;;;456.07;201.53;;;;;;;6.05;67.08;99349.72;5034938;28;20303;-59
2022/02/11 14:00:58;;;;;;;453.77;193.47;;;;;;;6.06;68.84;99364.16;5034445;28;20298;-58
2022/02/11 14:03:26;;;;;;;450.77;190.13;;;;;;;6.01;69.99;99373.44;5032380;28;20256;-59
2022/02/11 14:06:01;;;;;;;450.23;188.67;;;;;;;5.97;71.37;99379.31;5032712;28;20048;-58
2022/02/11 14:08:45;;;;;;;445.30;180.32;;;;;;;6.01;74.10;99381.06;5034267;28;20730;-60
2022/02/11 14:11:19;;;;;;;444.73;177.63;;;;;;;5.97;75.60;99403.09;5032659;28;20037;-59
2022/02/11 14:13:45;;;;;;;442.87;177.07;;;;;;;5.96;73.13;99393.75;5015065;28;20043;-59
2022/02/11 14:16:11;;;;;;;447.07;177.70;;;;;;;5.98;73.54;99420.03;5030250;28;20869;-59
2022/02/11 14:18:42;;;;;;;447.40;180.03;;;;;;;5.91;71.00;99400.47;5035846;28;20472;-59
2022/02/11 14:21:15;;;;;;;447.93;187.97;;;;;;;5.93;72.50;99418.31;5030473;28;20267;-58
2022/02/11 14:23:41;;;;;;;449.83;181.73;;;;;;;5.85;69.21;99436.00;5033268;28;20264;-57
2022/02/11 14:26:07;;;;;;;446.37;181.30;;;;;;;5.85;65.80;99435.13;5035537;28;20910;-57
2022/02/11 14:28:34;;;;;;;445.73;176.80;;;;;;;5.83;65.92;99429.16;5035659;28;20033;-59
2022/02/11 14:31:00;;;;;;;448.00;183.27;;;;;;;5.83;66.22;99458.00;5029736;28;20487;-58
2022/02/11 14:33:25;;;;;;;435.60;171.33;;;;;;;5.76;64.42;99494.38;5029753;28;20506;-57
2022/02/11 14:35:51;;;;;;;433.83;170.63;;;;;;;5.76;65.48;99455.38;5033733;28;20560;-60
2022/02/11 14:38:16;;;;;;;458.67;191.03;;;;;;;5.75;65.49;99456.19;5034019;28;20026;-57
2022/02/11 14:41:45;;;;;;;450.57;187.37;;;;;;;5.75;66.70;99449.41;5031861;28;20448;-59
2022/02/11 14:43:27;;;;;;;446.27;186.77;;;;;;;5.73;66.16;99480.78;5031479;28;20579;-58
2022/02/11 14:45:54;;;;;;;450.53;193.67;;;;;;;5.72;66.21;99476.50;5031177;28;20044;-59
2022/02/11 14:48:19;;;;;;;447.30;183.63;;;;;;;5.66;64.63;99484.03;5036624;28;20083;-58
2022/02/11 14:50:45;;;;;;;456.47;190.97;;;;;;;5.68;63.06;99474.75;5031142;28;20284;-59
2022/02/11 14:53:10;;;;;;;469.43;266.37;;;;;;;5.65;62.07;99487.41;5032401;28;20029;-59
2022/02/11 14:55:36;;;;;;;448.73;192.00;;;;;;;5.62;60.37;99475.53;5038518;28;20029;-59
2022/02/11 14:58:02;;;;;;;443.93;186.27;;;;;;;5.64;60.22;99478.09;5034326;28;20583;-59
2022/02/11 15:00:29;;;;;;;446.80;177.57;;;;;;;5.54;60.03;99477.09;5031001;28;20037;-58
2022/02/11 15:02:55;;;;;;;450.10;178.97;;;;;;;5.47;59.90;99465.13;5032937;28;20754;-59
2022/02/11 15:05:21;;;;;;;456.70;187.93;;;;;;;5.49;59.41;99483.81;5034408;28;20355;-60
2022/02/11 15:07:46;;;;;;;454.93;188.83;;;;;;;5.53;59.45;99491.50;5018360;28;20386;-59